Time;durP1;ratioP1;P1;durP2;ratioP2;P2;SDS_P1;SDS_P2;PMS_P1;PMS_P2;Temp;Humidity;BMP_temperature;BMP_pressure;BME280_temperature;BME280_humidity;BME280_pressure;Samples;Min_cycle;Max_cycle;Signal;HPM_P1;HPM_P2
2021/01/25 00:00:23;;;;;;;9.53;8.60;;;1.00;99.90;;;;;;5058357;28;20661;-85
2021/01/25 00:02:49;;;;;;;9.40;8.50;;;1.00;99.90;;;;;;5058914;28;21181;-87
2021/01/25 00:05:16;;;;;;;11.40;9.30;;;1.00;99.90;;;;;;5064871;28;20632;-87
2021/01/25 00:07:42;;;;;;;10.07;9.10;;;1.00;99.90;;;;;;5064569;28;20629;-85
2021/01/25 00:10:09;;;;;;;9.40;8.50;;;1.00;99.90;;;;;;5066306;28;21015;-85
2021/01/25 00:12:35;;;;;;;9.97;8.97;;;1.10;99.90;;;;;;5067083;28;20652;-86
2021/01/25 00:15:02;;;;;;;9.80;7.97;;;1.10;99.90;;;;;;5069567;28;20628;-86
2021/01/25 00:17:28;;;;;;;9.70;8.10;;;1.10;99.90;;;;;;5060069;28;20632;-86
2021/01/25 00:19:55;;;;;;;8.47;7.77;;;1.10;99.90;;;;;;5056851;28;20653;-85
2021/01/25 00:22:22;;;;;;;11.13;8.33;;;1.00;99.90;;;;;;5062530;28;20633;-85
2021/01/25 00:24:49;;;;;;;10.57;8.20;;;1.00;99.90;;;;;;5060870;28;20669;-85
2021/01/25 00:27:15;;;;;;;10.87;8.10;;;1.00;99.90;;;;;;5064012;28;20637;-86
2021/01/25 00:29:42;;;;;;;10.57;8.10;;;1.00;99.90;;;;;;5065411;28;20653;-86
2021/01/25 00:32:08;;;;;;;7.40;6.80;;;1.10;99.90;;;;;;5059114;28;20633;-85
2021/01/25 00:34:35;;;;;;;11.07;7.93;;;1.40;99.90;;;;;;5057089;28;20633;-87
2021/01/25 00:37:01;;;;;;;8.83;7.93;;;1.40;99.90;;;;;;5061146;28;20637;-87
2021/01/25 00:39:29;;;;;;;8.10;7.37;;;1.10;99.90;;;;;;5068715;28;20659;-85
2021/01/25 00:41:55;;;;;;;7.43;6.77;;;0.70;99.90;;;;;;5068818;28;20987;-86
2021/01/25 00:44:21;;;;;;;5.37;4.63;;;0.80;99.90;;;;;;5066935;28;21174;-87
2021/01/25 00:46:48;;;;;;;3.50;3.20;;;0.80;99.90;;;;;;5068022;28;20715;-87
2021/01/25 00:49:14;;;;;;;4.53;3.87;;;0.80;99.90;;;;;;5062739;28;20838;-85
2021/01/25 00:51:42;;;;;;;6.97;5.00;;;1.10;99.90;;;;;;5062334;28;20638;-86
2021/01/25 00:54:08;;;;;;;6.10;5.57;;;1.10;99.90;;;;;;5052047;28;20678;-86
2021/01/25 00:56:35;;;;;;;6.00;5.40;;;0.90;99.90;;;;;;5062576;28;20649;-85
2021/01/25 00:59:02;;;;;;;8.33;5.40;;;0.80;99.90;;;;;;5061292;28;20627;-86
2021/01/25 01:01:28;;;;;;;8.47;6.40;;;1.00;99.90;;;;;;5069233;28;20665;-85
2021/01/25 01:03:55;;;;;;;6.20;5.60;;;1.20;99.90;;;;;;5081312;28;20635;-86
2021/01/25 01:06:23;;;;;;;6.80;6.20;;;1.30;99.90;;;;;;5076670;28;20623;-86
2021/01/25 01:08:50;;;;;;;5.93;5.33;;;1.20;99.90;;;;;;5059766;28;20629;-86
2021/01/25 01:11:16;;;;;;;7.57;6.77;;;1.10;99.90;;;;;;5059334;28;20657;-85
2021/01/25 01:13:44;;;;;;;6.50;5.90;;;1.10;99.90;;;;;;5065505;28;21068;-86
2021/01/25 01:16:10;;;;;;;7.60;6.90;;;1.10;99.90;;;;;;5067215;28;20640;-86
2021/01/25 01:18:36;;;;;;;8.63;7.13;;;1.10;99.90;;;;;;5063701;28;20679;-86
2021/01/25 01:21:04;;;;;;;6.83;6.20;;;1.10;99.90;;;;;;5064106;28;20784;-88
2021/01/25 01:23:33;;;;;;;8.13;6.53;;;1.00;99.90;;;;;;5058475;28;20636;-88
2021/01/25 01:25:59;;;;;;;7.60;6.63;;;1.20;99.90;;;;;;5062774;28;20651;-88
2021/01/25 01:28:26;;;;;;;7.60;6.90;;;1.20;99.90;;;;;;5064699;28;20629;-86
2021/01/25 01:30:54;;;;;;;7.43;6.60;;;1.10;99.90;;;;;;5065349;28;21321;-86
2021/01/25 01:33:21;;;;;;;5.93;5.43;;;1.10;99.90;;;;;;5069015;28;20661;-86
2021/01/25 01:35:48;;;;;;;6.83;6.13;;;1.10;99.90;;;;;;5063714;28;20628;-88
2021/01/25 01:38:14;;;;;;;6.70;6.07;;;1.20;99.90;;;;;;5066806;28;20721;-86
2021/01/25 01:40:40;;;;;;;5.80;5.20;;;1.10;99.90;;;;;;5070443;28;20659;-87
2021/01/25 01:43:08;;;;;;;6.90;5.63;;;1.20;99.90;;;;;;5064455;28;20643;-87
2021/01/25 01:45:35;;;;;;;7.10;5.40;;;1.30;99.90;;;;;;5066146;28;20625;-88
2021/01/25 01:48:04;;;;;;;6.80;6.23;;;1.30;99.90;;;;;;5060113;28;20632;-87
2021/01/25 01:50:31;;;;;;;5.87;5.20;;;1.40;99.90;;;;;;5071304;28;20649;-87
2021/01/25 01:52:58;;;;;;;6.30;5.70;;;1.30;99.90;;;;;;5051492;28;20964;-86
2021/01/25 01:55:27;;;;;;;6.10;5.50;;;1.10;99.90;;;;;;5065426;28;20625;-86
2021/01/25 01:57:56;;;;;;;7.20;6.50;;;1.20;99.90;;;;;;5064433;28;21182;-85
2021/01/25 02:00:24;;;;;;;7.83;7.03;;;1.20;99.90;;;;;;5069292;28;20647;-85
2021/01/25 02:02:50;;;;;;;8.30;5.73;;;1.20;99.90;;;;;;5066038;28;20652;-86
2021/01/25 02:05:18;;;;;;;6.47;5.83;;;1.20;99.90;;;;;;5074874;28;20640;-86
2021/01/25 02:07:50;;;;;;;7.93;6.00;;;1.10;99.90;;;;;;5069434;28;20668;-86
2021/01/25 02:10:18;;;;;;;6.80;5.80;;;1.00;99.90;;;;;;5072664;28;20649;-86
2021/01/25 02:12:47;;;;;;;6.90;6.20;;;1.00;99.90;;;;;;5069096;28;20672;-86
2021/01/25 02:15:14;;;;;;;7.03;6.30;;;1.00;99.90;;;;;;5076059;28;20625;-85
2021/01/25 02:17:41;;;;;;;6.93;5.67;;;1.10;99.90;;;;;;5069603;28;20632;-86
2021/01/25 02:20:13;;;;;;;6.30;5.77;;;0.90;99.90;;;;;;5067662;28;20709;-85
2021/01/25 02:23:01;;;;;;;5.97;5.37;;;1.00;99.90;;;;;;5069945;28;20612;-85
2021/01/25 02:25:38;;;;;;;6.03;5.43;;;0.90;99.90;;;;;;5022495;28;20620;-85
2021/01/25 02:28:06;;;;;;;6.77;6.10;;;1.00;99.90;;;;;;5067990;28;20642;-85
2021/01/25 02:30:33;;;;;;;7.60;6.77;;;1.00;99.90;;;;;;5069680;28;20652;-85
2021/01/25 02:33:02;;;;;;;7.50;5.80;;;0.90;99.90;;;;;;5065846;28;20668;-85
2021/01/25 02:35:31;;;;;;;6.43;5.70;;;1.00;99.90;;;;;;5068709;28;20637;-87
2021/01/25 02:37:58;;;;;;;5.50;5.00;;;0.90;99.90;;;;;;5069507;28;20636;-87
2021/01/25 02:40:26;;;;;;;6.20;5.60;;;1.00;99.90;;;;;;5069110;28;20657;-87
2021/01/25 02:42:57;;;;;;;7.23;6.40;;;1.00;99.90;;;;;;5067662;28;20644;-87
2021/01/25 02:45:25;;;;;;;8.37;6.07;;;0.90;99.90;;;;;;5063384;28;20633;-87
2021/01/25 02:47:53;;;;;;;6.87;6.17;;;0.90;99.90;;;;;;5071903;28;20628;-86
2021/01/25 02:50:20;;;;;;;7.00;5.50;;;0.90;99.90;;;;;;5067160;28;21229;-86
2021/01/25 02:52:47;;;;;;;6.63;6.03;;;1.00;99.90;;;;;;5066517;28;20661;-86
2021/01/25 02:55:14;;;;;;;6.97;6.27;;;1.20;99.90;;;;;;5064472;28;20627;-86
2021/01/25 02:57:41;;;;;;;6.37;5.80;;;1.30;99.90;;;;;;5067923;28;20633;-86
2021/01/25 03:00:09;;;;;;;6.50;5.90;;;1.40;99.90;;;;;;5068648;28;21235;-86
2021/01/25 03:02:37;;;;;;;6.87;5.90;;;1.40;99.90;;;;;;5063761;28;20632;-86
2021/01/25 03:05:04;;;;;;;5.63;5.23;;;1.40;99.90;;;;;;5070397;28;20624;-86
2021/01/25 03:07:30;;;;;;;5.50;4.90;;;1.50;99.90;;;;;;5062536;28;20637;-86
2021/01/25 03:10:00;;;;;;;7.83;5.13;;;1.50;99.90;;;;;;5066004;28;20656;-86
2021/01/25 03:12:27;;;;;;;7.57;5.03;;;1.50;99.90;;;;;;5061001;28;20683;-86
2021/01/25 03:14:54;;;;;;;5.03;4.60;;;1.30;99.90;;;;;;5070804;28;20629;-86
2021/01/25 03:17:20;;;;;;;6.73;4.77;;;1.40;99.90;;;;;;5060926;28;21048;-86
2021/01/25 03:19:47;;;;;;;5.87;5.00;;;1.50;99.90;;;;;;5062361;28;20823;-86
2021/01/25 03:22:14;;;;;;;6.30;5.20;;;1.50;99.90;;;;;;5057687;28;21017;-86
2021/01/25 03:24:40;;;;;;;5.33;4.93;;;1.50;99.90;;;;;;5069553;28;20587;-86
2021/01/25 03:27:07;;;;;;;5.37;4.80;;;1.50;99.90;;;;;;5065404;28;20631;-87
2021/01/25 03:29:33;;;;;;;6.60;4.87;;;1.40;99.90;;;;;;5070368;28;20925;-86
2021/01/25 03:32:00;;;;;;;5.27;4.57;;;1.40;99.90;;;;;;5071423;28;20623;-86
2021/01/25 03:34:26;;;;;;;5.23;4.70;;;1.40;99.90;;;;;;5067646;28;20653;-86
2021/01/25 03:36:54;;;;;;;6.47;5.30;;;1.30;99.90;;;;;;5067299;28;21226;-86
2021/01/25 03:39:20;;;;;;;5.80;4.67;;;1.40;99.90;;;;;;5068323;28;20632;-86
2021/01/25 03:41:47;;;;;;;4.73;4.33;;;1.40;99.90;;;;;;5071645;28;20609;-85
2021/01/25 03:44:14;;;;;;;4.63;4.23;;;1.20;99.90;;;;;;5068697;28;20610;-86
2021/01/25 03:46:45;;;;;;;6.20;4.97;;;1.20;99.90;;;;;;5070719;28;20649;-86
2021/01/25 03:49:12;;;;;;;5.13;4.73;;;1.10;99.90;;;;;;5067382;28;20634;-87
2021/01/25 03:51:39;;;;;;;5.10;4.60;;;1.10;99.90;;;;;;5074486;28;20637;-85
2021/01/25 03:54:07;;;;;;;6.53;5.27;;;1.10;99.90;;;;;;5070128;28;20701;-86
2021/01/25 03:56:33;;;;;;;5.60;5.10;;;0.90;99.90;;;;;;5082659;28;20632;-85
2021/01/25 03:58:59;;;;;;;5.80;5.30;;;0.90;99.90;;;;;;5095459;28;20628;-85
2021/01/25 04:01:27;;;;;;;5.80;5.20;;;1.10;99.90;;;;;;5091674;28;20660;-87
2021/01/25 04:03:53;;;;;;;7.43;5.73;;;1.00;99.90;;;;;;5088249;28;20724;-85
2021/01/25 04:06:19;;;;;;;7.03;6.47;;;1.00;99.90;;;;;;5088695;28;20629;-86
2021/01/25 04:08:45;;;;;;;7.53;6.73;;;1.00;99.90;;;;;;5084992;28;20682;-86
2021/01/25 04:11:13;;;;;;;7.13;6.57;;;1.00;99.90;;;;;;5080854;28;20767;-87
2021/01/25 04:13:41;;;;;;;6.83;6.23;;;1.00;99.90;;;;;;5086329;28;20653;-86
2021/01/25 04:16:08;;;;;;;7.43;6.23;;;1.00;99.90;;;;;;5083315;28;20633;-86
2021/01/25 04:18:34;;;;;;;8.23;7.40;;;1.00;99.90;;;;;;5087484;28;20651;-86
2021/01/25 04:21:01;;;;;;;7.47;6.80;;;1.00;99.90;;;;;;5087774;28;20651;-86
2021/01/25 04:23:28;;;;;;;7.50;6.90;;;0.90;99.90;;;;;;5087880;28;20621;-85
2021/01/25 04:25:55;;;;;;;7.73;6.93;;;0.90;99.90;;;;;;5082862;28;20632;-85
2021/01/25 04:28:22;;;;;;;8.20;7.40;;;0.80;99.90;;;;;;5086245;28;20609;-85
2021/01/25 04:30:48;;;;;;;7.80;7.10;;;0.80;99.90;;;;;;5080132;28;20649;-85
2021/01/25 04:33:15;;;;;;;7.40;6.80;;;0.80;99.90;;;;;;5084083;28;20665;-84
2021/01/25 04:35:42;;;;;;;7.73;7.03;;;0.80;99.90;;;;;;5081681;28;20640;-84
2021/01/25 04:38:09;;;;;;;7.53;6.83;;;0.90;99.90;;;;;;5075916;28;20622;-84
2021/01/25 04:40:36;;;;;;;7.40;6.60;;;0.90;99.90;;;;;;5081625;28;20656;-86
2021/01/25 04:43:03;;;;;;;6.80;6.20;;;0.80;99.90;;;;;;5080798;28;20660;-85
2021/01/25 04:45:31;;;;;;;6.83;6.23;;;0.90;99.90;;;;;;5080570;28;20635;-84
2021/01/25 04:47:57;;;;;;;6.90;6.40;;;0.80;99.90;;;;;;5075444;28;20698;-84
2021/01/25 04:50:26;;;;;;;9.30;8.50;;;1.00;99.90;;;;;;5067933;28;20995;-85
2021/01/25 04:52:53;;;;;;;6.87;6.30;;;1.00;99.90;;;;;;5058884;28;21046;-84
2021/01/25 04:55:21;;;;;;;7.20;6.60;;;0.90;99.90;;;;;;5066128;28;20625;-84
2021/01/25 04:57:48;;;;;;;7.33;6.63;;;0.90;99.90;;;;;;5066221;28;20638;-83
2021/01/25 05:00:18;;;;;;;5.90;5.50;;;1.00;99.90;;;;;;5065028;28;20643;-84
2021/01/25 05:02:45;;;;;;;7.20;6.50;;;1.00;99.90;;;;;;5059983;28;20652;-84
2021/01/25 05:05:12;;;;;;;6.70;6.10;;;1.00;99.90;;;;;;5064731;28;20620;-84
2021/01/25 05:07:38;;;;;;;8.10;6.80;;;1.10;99.90;;;;;;5068872;28;21148;-84
2021/01/25 05:10:06;;;;;;;6.43;5.83;;;1.00;99.90;;;;;;5069612;28;20605;-84
2021/01/25 05:12:45;;;;;;;7.53;6.80;;;1.00;99.90;;;;;;5061537;28;21092;-85
2021/01/25 05:15:22;;;;;;;6.70;6.00;;;1.00;99.90;;;;;;5066894;28;20624;-84
2021/01/25 05:17:50;;;;;;;6.47;5.87;;;1.00;99.90;;;;;;5064823;28;20630;-84
2021/01/25 05:20:16;;;;;;;9.00;7.77;;;1.10;99.90;;;;;;5070064;28;21066;-85
2021/01/25 05:22:43;;;;;;;7.10;6.60;;;1.20;99.90;;;;;;5069689;28;21039;-85
2021/01/25 05:25:10;;;;;;;7.23;6.57;;;1.10;99.90;;;;;;5081135;28;20628;-85
2021/01/25 05:27:37;;;;;;;7.20;6.60;;;1.10;99.90;;;;;;5070417;28;20635;-85
2021/01/25 05:30:08;;;;;;;7.13;6.50;;;1.10;99.90;;;;;;5065715;28;20691;-86
2021/01/25 05:32:44;;;;;;;7.80;7.10;;;1.20;99.90;;;;;;5071926;28;20661;-86
2021/01/25 05:35:13;;;;;;;7.23;6.53;;;1.20;99.90;;;;;;5071122;28;20668;-86
2021/01/25 05:37:42;;;;;;;18.13;16.87;;;1.40;99.90;;;;;;5067216;28;21428;-85
2021/01/25 05:40:13;;;;;;;11.87;10.77;;;1.30;99.90;;;;;;5073201;28;21031;-85
2021/01/25 05:42:41;;;;;;;8.27;7.50;;;1.30;99.90;;;;;;5069834;28;20649;-86
2021/01/25 05:45:09;;;;;;;9.70;7.53;;;1.10;99.90;;;;;;5073966;28;20636;-87
2021/01/25 05:47:44;;;;;;;8.87;8.03;;;1.00;99.90;;;;;;5072017;28;20704;-87
2021/01/25 05:50:24;;;;;;;9.37;8.50;;;1.10;99.90;;;;;;5070522;28;20604;-86
2021/01/25 05:52:52;;;;;;;8.50;7.80;;;1.10;99.90;;;;;;5065897;28;20676;-86
2021/01/25 05:55:20;;;;;;;14.03;12.93;;;1.10;99.90;;;;;;5076043;28;20621;-86
2021/01/25 05:57:46;;;;;;;16.60;15.03;;;1.10;99.90;;;;;;5076123;28;20662;-86
2021/01/25 06:00:13;;;;;;;12.20;9.57;;;1.20;99.90;;;;;;5078792;28;20602;-88
2021/01/25 06:02:42;;;;;;;14.33;13.03;;;1.20;99.90;;;;;;5087069;28;20670;-85
2021/01/25 06:05:14;;;;;;;9.50;8.70;;;1.30;99.90;;;;;;5078668;28;20636;-85
2021/01/25 06:07:42;;;;;;;9.43;8.63;;;1.30;99.90;;;;;;5083441;28;20621;-85
2021/01/25 06:10:14;;;;;;;8.40;7.70;;;1.20;99.90;;;;;;5078450;28;21172;-85
2021/01/25 06:12:44;;;;;;;8.27;7.53;;;1.20;99.90;;;;;;5067471;28;21014;-85
2021/01/25 06:15:16;;;;;;;9.27;8.17;;;1.20;99.90;;;;;;5072782;28;20619;-85
2021/01/25 06:17:45;;;;;;;8.00;7.20;;;1.20;99.90;;;;;;5068150;28;20636;-85
2021/01/25 06:20:16;;;;;;;9.00;7.70;;;1.30;99.90;;;;;;5071609;28;20605;-86
2021/01/25 06:22:44;;;;;;;7.63;7.03;;;1.20;99.90;;;;;;5073550;28;20648;-85
2021/01/25 06:25:12;;;;;;;10.13;9.07;;;1.10;99.90;;;;;;5069541;28;21249;-84
2021/01/25 06:27:40;;;;;;;8.77;8.00;;;1.20;99.90;;;;;;5063392;28;21021;-86
2021/01/25 06:30:09;;;;;;;9.10;8.07;;;1.20;99.90;;;;;;5068397;28;20625;-84
2021/01/25 06:35:49;;;;;;;9.40;8.60;;;1.20;99.90;;;;;;5057426;28;20679;-85
2021/01/25 06:38:19;;;;;;;9.70;8.73;;;1.20;99.90;;;;;;5066005;28;20831;-85
2021/01/25 06:40:46;;;;;;;10.50;9.60;;;1.20;99.90;;;;;;5066672;28;20639;-84
2021/01/25 06:43:14;;;;;;;10.10;9.30;;;1.20;99.90;;;;;;5066558;28;20600;-85
2021/01/25 06:45:43;;;;;;;10.17;9.03;;;1.10;99.90;;;;;;5063518;28;20675;-88
2021/01/25 06:48:12;;;;;;;9.37;8.67;;;1.10;99.90;;;;;;5062316;28;20724;-86
2021/01/25 06:50:38;;;;;;;10.63;9.63;;;1.10;99.90;;;;;;5066181;28;20669;-86
2021/01/25 06:53:06;;;;;;;11.20;10.20;;;1.10;99.90;;;;;;5067870;28;20779;-87
2021/01/25 06:55:34;;;;;;;10.87;9.97;;;1.20;99.90;;;;;;5062061;28;20657;-87
2021/01/25 06:58:05;;;;;;;11.60;10.50;;;1.10;99.90;;;;;;5072530;28;20704;-87
2021/01/25 07:00:33;;;;;;;12.43;11.33;;;1.20;99.90;;;;;;5064642;28;20636;-88
2021/01/25 07:03:03;;;;;;;11.10;10.00;;;1.20;99.90;;;;;;5067590;28;20649;-87
2021/01/25 07:05:30;;;;;;;11.93;10.83;;;1.30;99.90;;;;;;5064898;28;21650;-87
2021/01/25 07:08:17;;;;;;;12.23;11.07;;;1.30;99.90;;;;;;5064750;28;20633;-89
2021/01/25 07:10:58;;;;;;;12.03;10.77;;;1.30;99.90;;;;;;5065842;28;20634;-87
2021/01/25 07:13:28;;;;;;;12.30;11.30;;;1.30;99.90;;;;;;5061256;28;20676;-89
2021/01/25 07:15:55;;;;;;;12.27;11.23;;;1.20;99.90;;;;;;5065986;28;20637;-88
2021/01/25 07:18:21;;;;;;;13.20;11.90;;;1.30;99.90;;;;;;5066203;28;20605;-88
2021/01/25 07:20:49;;;;;;;12.53;11.50;;;1.30;99.90;;;;;;5062995;28;21165;-88
2021/01/25 07:23:18;;;;;;;13.60;12.30;;;1.30;99.90;;;;;;5062204;28;20652;-86
2021/01/25 07:25:54;;;;;;;14.10;12.50;;;1.30;99.90;;;;;;5065938;28;20632;-87
2021/01/25 07:28:22;;;;;;;15.30;13.07;;;1.30;99.90;;;;;;5063464;28;20584;-86
2021/01/25 07:30:49;;;;;;;17.37;15.70;;;1.50;99.90;;;;;;5068959;28;20606;-91
2021/01/25 07:33:15;;;;;;;17.23;15.60;;;1.50;99.90;;;;;;5075409;28;20666;-88
2021/01/25 07:35:43;;;;;;;16.20;14.60;;;1.50;99.90;;;;;;5069069;28;20636;-88
2021/01/25 07:38:12;;;;;;;14.73;13.43;;;1.50;99.90;;;;;;5072646;28;20624;-88
2021/01/25 07:40:39;;;;;;;13.90;12.60;;;1.50;99.90;;;;;;5063011;28;20624;-88
2021/01/25 07:43:07;;;;;;;12.33;11.07;;;1.50;99.90;;;;;;5065036;28;20601;-89
2021/01/25 07:45:33;;;;;;;13.90;12.60;;;1.60;99.90;;;;;;5083101;28;20620;-88
2021/01/25 07:48:00;;;;;;;11.83;10.83;;;1.60;99.90;;;;;;5088323;28;20642;-88
2021/01/25 07:50:26;;;;;;;14.03;12.70;;;1.60;99.90;;;;;;5076392;28;20634;-89
2021/01/25 07:53:01;;;;;;;11.93;10.73;;;1.60;99.90;;;;;;5066759;28;20643;-89
2021/01/25 07:55:28;;;;;;;13.10;11.90;;;1.60;99.90;;;;;;5070971;28;20632;-89
2021/01/25 07:58:06;;;;;;;12.53;11.40;;;1.70;99.90;;;;;;5061922;28;20641;-89
2021/01/25 08:00:32;;;;;;;17.20;15.80;;;1.70;99.90;;;;;;5068562;28;20694;-88
2021/01/25 08:03:03;;;;;;;12.73;11.47;;;1.90;99.90;;;;;;5071832;28;20695;-88
2021/01/25 08:05:30;;;;;;;12.60;11.53;;;2.00;99.90;;;;;;5073041;28;21247;-89
2021/01/25 08:07:57;;;;;;;13.33;12.03;;;2.00;99.90;;;;;;5077416;28;20660;-88
2021/01/25 08:10:25;;;;;;;11.37;10.30;;;1.90;99.90;;;;;;5063797;28;20584;-88
2021/01/25 08:12:52;;;;;;;12.17;11.07;;;1.90;99.90;;;;;;5066457;28;20634;-88
2021/01/25 08:15:27;;;;;;;13.63;12.20;;;1.90;99.90;;;;;;5065775;28;22152;-89
2021/01/25 08:17:57;;;;;;;13.20;12.00;;;1.90;99.90;;;;;;5067542;28;20650;-89
2021/01/25 08:20:27;;;;;;;13.13;11.83;;;1.80;99.90;;;;;;5078088;28;20627;-88
2021/01/25 08:22:57;;;;;;;13.30;12.10;;;1.80;99.90;;;;;;5071761;28;20657;-89
2021/01/25 08:25:28;;;;;;;14.23;13.00;;;1.70;99.90;;;;;;5065321;28;20661;-89
2021/01/25 08:28:06;;;;;;;14.73;13.47;;;1.70;99.90;;;;;;5070862;28;20644;-89
2021/01/25 08:30:39;;;;;;;14.87;13.37;;;1.70;99.90;;;;;;5068694;28;20636;-89
2021/01/25 08:33:10;;;;;;;15.23;13.70;;;1.80;99.90;;;;;;5065839;28;20664;-89
2021/01/25 08:35:41;;;;;;;14.77;13.23;;;1.90;99.90;;;;;;5068463;28;20637;-89
2021/01/25 08:38:22;;;;;;;14.27;12.90;;;2.00;99.90;;;;;;5065797;28;20640;-89
2021/01/25 08:40:50;;;;;;;14.73;13.43;;;1.90;99.90;;;;;;5064706;28;20582;-88
2021/01/25 08:43:27;;;;;;;15.93;14.50;;;1.80;99.90;;;;;;5068505;28;21122;-88
2021/01/25 08:46:06;;;;;;;14.30;12.90;;;2.00;99.90;;;;;;5064950;28;20649;-89
2021/01/25 08:48:34;;;;;;;14.60;13.20;;;1.90;99.90;;;;;;5067554;28;20632;-88
2021/01/25 08:51:12;;;;;;;14.57;13.20;;;1.90;99.90;;;;;;5056322;28;20745;-89
2021/01/25 08:53:39;;;;;;;14.30;13.00;;;1.80;99.90;;;;;;5066453;28;20666;-87
2021/01/25 08:56:15;;;;;;;13.20;12.00;;;1.80;99.90;;;;;;5061250;28;20786;-88
2021/01/25 08:58:42;;;;;;;13.43;12.23;;;1.80;99.90;;;;;;5066630;28;20980;-89
2021/01/25 09:01:15;;;;;;;14.60;13.23;;;1.80;99.90;;;;;;5066356;28;21192;-89
2021/01/25 09:03:44;;;;;;;13.90;12.70;;;1.90;99.90;;;;;;5067189;28;20653;-89
2021/01/25 09:06:12;;;;;;;15.47;14.07;;;2.00;99.90;;;;;;5073350;28;20952;-89
2021/01/25 09:08:39;;;;;;;12.63;11.53;;;2.00;99.90;;;;;;5070083;28;20654;-89
2021/01/25 09:11:07;;;;;;;13.17;12.07;;;2.30;99.90;;;;;;5072329;28;20988;-90
2021/01/25 09:13:34;;;;;;;14.07;12.87;;;2.30;99.90;;;;;;5068989;28;20679;-90
2021/01/25 09:16:01;;;;;;;12.13;11.13;;;2.40;99.90;;;;;;5071820;28;20629;-89
2021/01/25 09:18:30;;;;;;;11.40;10.20;;;2.50;99.90;;;;;;5076943;28;20693;-89
2021/01/25 09:20:56;;;;;;;12.53;11.33;;;2.40;99.90;;;;;;5070363;28;20640;-90
2021/01/25 09:23:24;;;;;;;11.70;10.60;;;2.40;99.90;;;;;;5081609;28;20629;-90
2021/01/25 09:25:50;;;;;;;10.97;9.93;;;2.40;99.90;;;;;;5073918;28;21155;-89
2021/01/25 09:28:17;;;;;;;13.00;10.10;;;2.30;99.90;;;;;;5063288;28;20644;-89
2021/01/25 09:30:44;;;;;;;11.83;10.80;;;2.30;99.90;;;;;;5065498;28;20638;-88
2021/01/25 09:33:10;;;;;;;11.17;10.17;;;2.50;99.90;;;;;;5060499;28;20755;-90
2021/01/25 09:35:38;;;;;;;13.00;11.80;;;2.50;99.90;;;;;;5064861;28;20638;-89
2021/01/25 09:38:04;;;;;;;11.17;10.20;;;2.50;99.90;;;;;;5059852;28;20616;-89
2021/01/25 09:40:33;;;;;;;10.63;9.70;;;2.60;99.90;;;;;;5074843;28;21202;-89
2021/01/25 09:43:00;;;;;;;10.67;9.57;;;2.60;99.90;;;;;;5068436;28;20706;-89
2021/01/25 09:45:27;;;;;;;11.17;10.17;;;2.60;99.90;;;;;;5068671;28;21026;-91
2021/01/25 09:47:53;;;;;;;11.50;10.30;;;2.60;99.90;;;;;;5081073;28;20597;-91
2021/01/25 09:50:20;;;;;;;10.33;9.43;;;2.70;99.90;;;;;;5074812;28;20703;-89
2021/01/25 09:52:48;;;;;;;11.33;9.37;;;2.90;99.90;;;;;;5063375;28;20629;-89
2021/01/25 09:55:17;;;;;;;11.33;10.40;;;2.70;99.90;;;;;;5072746;28;20636;-90
2021/01/25 09:57:43;;;;;;;10.43;9.60;;;2.80;99.90;;;;;;5059667;28;21183;-90
2021/01/25 10:00:11;;;;;;;11.27;10.37;;;2.90;99.90;;;;;;5067285;28;20981;-90
2021/01/25 10:02:40;;;;;;;12.10;10.97;;;2.80;99.90;;;;;;5063686;28;20633;-90
2021/01/25 10:05:08;;;;;;;10.70;9.70;;;2.80;99.90;;;;;;5064013;28;20683;-89
2021/01/25 10:07:35;;;;;;;11.43;10.43;;;2.70;99.90;;;;;;5071474;28;20633;-91
2021/01/25 10:10:05;;;;;;;11.00;9.90;;;2.70;99.90;;;;;;5065640;28;20653;-91
2021/01/25 10:12:31;;;;;;;10.57;8.70;;;2.60;99.90;;;;;;5062276;28;20630;-91
2021/01/25 10:14:58;;;;;;;9.60;8.83;;;2.50;99.90;;;;;;5067192;28;20669;-91
2021/01/25 10:17:24;;;;;;;9.07;8.33;;;2.60;99.90;;;;;;5071680;28;20697;-92
2021/01/25 10:19:51;;;;;;;11.60;9.33;;;2.60;99.90;;;;;;5081400;28;20654;-92
2021/01/25 10:22:17;;;;;;;9.43;8.63;;;2.60;99.90;;;;;;5068758;28;20627;-92
2021/01/25 10:24:46;;;;;;;10.63;9.60;;;2.80;99.90;;;;;;5063833;28;20718;-92
2021/01/25 10:27:13;;;;;;;11.90;10.70;;;3.00;99.90;;;;;;5066856;28;21307;-91
2021/01/25 10:29:39;;;;;;;10.77;9.87;;;2.90;99.90;;;;;;5074004;28;20648;-91
2021/01/25 10:32:06;;;;;;;11.27;10.23;;;2.80;99.90;;;;;;5068259;28;20625;-91
2021/01/25 10:34:32;;;;;;;10.60;9.60;;;2.90;99.90;;;;;;5065191;28;21434;-92
2021/01/25 10:36:58;;;;;;;10.30;9.20;;;3.00;99.90;;;;;;5066215;28;20626;-92
2021/01/25 10:39:25;;;;;;;9.60;8.70;;;2.80;99.90;;;;;;5072218;28;20653;-92
2021/01/25 10:41:51;;;;;;;10.47;9.33;;;3.00;99.90;;;;;;5067457;28;20698;-91
2021/01/25 10:44:19;;;;;;;9.20;8.40;;;3.00;99.90;;;;;;5075924;28;20660;-92
2021/01/25 10:46:46;;;;;;;9.00;8.20;;;3.10;99.90;;;;;;5073237;28;20648;-91
2021/01/25 10:49:14;;;;;;;9.87;8.50;;;3.10;99.90;;;;;;5081424;28;20977;-92
2021/01/25 10:51:40;;;;;;;11.40;10.20;;;3.20;99.90;;;;;;5070464;28;20648;-91
2021/01/25 10:54:07;;;;;;;10.07;9.17;;;3.30;99.90;;;;;;5074747;28;21016;-91
2021/01/25 10:56:33;;;;;;;13.27;9.73;;;3.40;99.90;;;;;;5066670;28;20636;-91
2021/01/25 10:58:59;;;;;;;9.27;8.47;;;3.50;99.90;;;;;;5073392;28;20632;-91
2021/01/25 11:01:31;;;;;;;10.00;9.10;;;3.50;99.90;;;;;;5065410;28;21148;-91
2021/01/25 11:03:58;;;;;;;14.43;11.63;;;3.40;99.90;;;;;;5065983;28;20661;-92
2021/01/25 11:06:25;;;;;;;11.73;10.50;;;3.50;99.90;;;;;;5071742;28;20636;-91
2021/01/25 11:08:52;;;;;;;12.60;10.93;;;3.40;99.90;;;;;;5088107;28;20795;-93
2021/01/25 11:11:20;;;;;;;10.07;9.13;;;3.30;99.90;;;;;;5084354;28;20629;-92
2021/01/25 11:13:47;;;;;;;11.70;9.60;;;3.30;99.90;;;;;;5068679;28;20681;-92
2021/01/25 11:16:13;;;;;;;10.13;9.03;;;3.30;99.90;;;;;;5069409;28;21214;-91
2021/01/25 11:18:41;;;;;;;9.83;8.93;;;3.20;99.90;;;;;;5065521;28;20660;-93
2021/01/25 11:21:08;;;;;;;9.70;8.47;;;3.00;99.90;;;;;;5075390;28;20701;-94
2021/01/25 11:23:34;;;;;;;10.17;8.50;;;3.00;99.90;;;;;;5074581;28;20680;-93
2021/01/25 11:26:01;;;;;;;9.70;8.80;;;3.10;99.90;;;;;;5075035;28;20660;-94
2021/01/25 11:28:28;;;;;;;12.23;9.70;;;3.20;99.90;;;;;;5063244;28;20622;-91
2021/01/25 11:30:55;;;;;;;9.77;8.70;;;3.30;99.90;;;;;;5063093;28;20961;-92
2021/01/25 11:33:24;;;;;;;11.10;10.07;;;3.40;99.90;;;;;;5063223;28;21023;-91
2021/01/25 11:35:54;;;;;;;11.80;10.77;;;3.50;99.90;;;;;;5063514;28;20613;-94
2021/01/25 11:38:21;;;;;;;10.17;8.87;;;3.50;99.90;;;;;;5063303;28;20605;-93
2021/01/25 11:40:47;;;;;;;10.43;9.37;;;3.60;99.90;;;;;;5063049;28;20661;-92
2021/01/25 11:43:14;;;;;;;10.27;9.43;;;3.60;99.90;;;;;;5060675;28;20634;-93
2021/01/25 11:45:41;;;;;;;9.77;8.90;;;3.70;99.90;;;;;;5065563;28;20624;-93
2021/01/25 11:48:08;;;;;;;9.33;8.30;;;3.70;99.90;;;;;;5064296;28;20624;-92
2021/01/25 11:50:35;;;;;;;10.80;9.80;;;3.80;99.90;;;;;;5064977;28;20626;-92
2021/01/25 11:53:03;;;;;;;12.23;10.20;;;3.80;99.90;;;;;;5065336;28;20629;-92
2021/01/25 11:55:30;;;;;;;10.17;9.27;;;3.80;99.90;;;;;;5069681;28;20661;-91
2021/01/25 11:58:00;;;;;;;12.50;10.33;;;3.90;99.90;;;;;;5061615;28;20652;-93
2021/01/25 12:00:27;;;;;;;10.77;9.77;;;3.90;99.90;;;;;;5064162;28;20648;-91
2021/01/25 12:02:54;;;;;;;9.63;8.90;;;3.90;99.90;;;;;;5064475;28;20621;-92
2021/01/25 12:05:20;;;;;;;10.17;8.87;;;3.80;99.90;;;;;;5067306;28;21067;-91
2021/01/25 12:07:48;;;;;;;10.93;9.83;;;3.80;99.90;;;;;;5064482;28;20639;-91
2021/01/25 12:10:15;;;;;;;10.00;9.00;;;3.60;99.90;;;;;;5071822;28;20657;-90
2021/01/25 12:12:42;;;;;;;9.60;8.70;;;3.80;99.90;;;;;;5065310;28;20634;-91
2021/01/25 12:15:09;;;;;;;11.60;10.47;;;3.60;99.90;;;;;;5060549;28;20703;-90
2021/01/25 12:17:36;;;;;;;12.90;11.17;;;3.80;99.90;;;;;;5056042;28;20633;-90
2021/01/25 12:20:03;;;;;;;12.07;10.97;;;3.80;99.90;;;;;;5070700;28;20777;-91
2021/01/25 12:22:30;;;;;;;11.53;9.37;;;3.70;99.90;;;;;;5065011;28;20634;-91
2021/01/25 12:24:56;;;;;;;9.63;8.87;;;3.50;99.90;;;;;;5063213;28;20663;-90
2021/01/25 12:27:23;;;;;;;10.63;9.73;;;3.60;99.90;;;;;;5063696;28;20628;-91
2021/01/25 12:29:49;;;;;;;10.50;9.50;;;3.70;99.90;;;;;;5061249;28;20633;-91
2021/01/25 12:32:16;;;;;;;10.50;9.47;;;3.60;99.90;;;;;;5070571;28;20621;-91
2021/01/25 12:34:42;;;;;;;10.90;9.90;;;3.60;99.90;;;;;;5061966;28;20791;-91
2021/01/25 12:37:09;;;;;;;12.03;10.77;;;3.70;99.90;;;;;;5065486;28;20655;-91
2021/01/25 12:39:35;;;;;;;9.70;8.90;;;3.70;99.90;;;;;;5079607;28;20678;-89
2021/01/25 12:42:03;;;;;;;13.20;12.00;;;3.80;99.90;;;;;;5066235;28;20634;-91
2021/01/25 12:44:30;;;;;;;11.63;10.07;;;3.80;99.90;;;;;;5071154;28;20656;-89
2021/01/25 12:46:56;;;;;;;9.80;8.30;;;3.90;99.90;;;;;;5062644;28;20673;-89
2021/01/25 12:49:24;;;;;;;13.07;9.73;;;4.00;99.90;;;;;;5059903;28;20851;-88
2021/01/25 12:51:50;;;;;;;10.23;9.13;;;4.20;99.90;;;;;;5068622;28;21049;-88
2021/01/25 12:54:17;;;;;;;11.87;10.87;;;4.30;99.90;;;;;;5061267;28;21119;-88
2021/01/25 12:56:46;;;;;;;10.80;9.90;;;4.30;99.90;;;;;;5061673;28;20594;-88